createdAt,value
2017-10-20T00:00:59.378Z,70.58
2017-10-20T00:03:27.034Z,70.45
2017-10-20T00:05:54.694Z,70.39
2017-10-20T00:08:22.290Z,70.50
2017-10-20T00:10:49.931Z,70.13
2017-10-20T00:13:17.526Z,70.38
2017-10-20T00:15:45.146Z,70.52
2017-10-20T00:18:12.815Z,70.61
2017-10-20T00:20:40.446Z,70.45
2017-10-20T00:23:08.034Z,70.31
2017-10-20T00:25:35.704Z,70.30
2017-10-20T00:28:03.294Z,70.41
2017-10-20T00:30:30.935Z,70.26
2017-10-20T00:32:58.545Z,70.20
2017-10-20T00:35:26.186Z,70.33
2017-10-20T00:37:53.785Z,70.42
2017-10-20T00:40:21.375Z,70.44
2017-10-20T00:42:49.011Z,70.03
2017-10-20T00:45:16.619Z,70.22
2017-10-20T00:47:45.451Z,70.08
2017-10-20T00:50:13.036Z,70.08
2017-10-20T00:52:40.683Z,69.73
2017-10-20T00:55:08.266Z,69.26
2017-10-20T00:57:35.891Z,69.63
2017-10-20T01:00:03.482Z,69.08
2017-10-20T01:02:31.120Z,69.19
2017-10-20T01:04:58.752Z,68.90
2017-10-20T01:07:26.505Z,68.63
2017-10-20T01:09:54.100Z,68.47
2017-10-20T01:12:21.727Z,67.96
2017-10-20T01:14:49.342Z,67.71
2017-10-20T01:17:16.934Z,67.61
2017-10-20T01:19:44.611Z,67.89
2017-10-20T01:22:12.231Z,68.32
2017-10-20T01:24:39.860Z,68.95
2017-10-20T01:27:07.486Z,69.58
2017-10-20T01:29:35.119Z,69.62
2017-10-20T01:32:02.723Z,69.74
2017-10-20T01:34:30.365Z,69.58
2017-10-20T01:36:57.947Z,69.50
2017-10-20T01:39:25.575Z,69.48
2017-10-20T01:41:53.179Z,68.82
2017-10-20T01:44:21.443Z,68.62
2017-10-20T01:46:49.035Z,68.24
2017-10-20T01:49:16.626Z,67.64
2017-10-20T01:51:44.257Z,65.81
2017-10-20T01:54:11.847Z,65.77
2017-10-20T01:56:39.458Z,65.88
2017-10-20T01:59:07.036Z,66.01
2017-10-20T02:01:34.657Z,66.55
2017-10-20T02:04:02.248Z,67.47
2017-10-20T02:06:29.871Z,67.42
2017-10-20T02:08:57.474Z,67.27
2017-10-20T02:11:25.148Z,67.14
2017-10-20T02:13:52.847Z,66.96
2017-10-20T02:16:20.471Z,66.76
2017-10-20T02:18:48.070Z,66.57
2017-10-20T02:21:15.660Z,66.83
2017-10-20T02:23:43.290Z,67.69
2017-10-20T02:26:10.972Z,67.96
2017-10-20T02:28:38.586Z,68.07
2017-10-20T02:31:06.216Z,67.40
2017-10-20T02:33:33.819Z,67.06
2017-10-20T02:36:01.447Z,66.83
2017-10-20T02:38:29.034Z,66.61
2017-10-20T02:40:56.672Z,66.79
2017-10-20T02:43:24.264Z,66.57
2017-10-20T02:45:51.888Z,66.11
2017-10-20T02:48:19.495Z,65.64
2017-10-20T02:50:47.139Z,64.90
2017-10-20T02:53:16.262Z,63.88
2017-10-20T02:55:43.936Z,63.49
2017-10-20T02:58:11.531Z,63.01
2017-10-20T03:00:39.181Z,62.87
2017-10-20T03:03:06.794Z,62.80
2017-10-20T03:05:34.424Z,62.57
2017-10-20T03:08:02.050Z,62.24
2017-10-20T03:10:29.721Z,62.21
2017-10-20T03:12:57.343Z,62.33
2017-10-20T03:15:24.979Z,61.71
2017-10-20T03:17:52.581Z,61.79
2017-10-20T03:20:20.203Z,61.43
2017-10-20T03:22:47.797Z,61.05
2017-10-20T03:25:15.651Z,61.50
2017-10-20T03:27:44.211Z,61.70
2017-10-20T03:30:11.884Z,61.44
2017-10-20T03:32:39.517Z,61.64
2017-10-20T03:35:07.107Z,61.65
2017-10-20T03:37:34.731Z,61.82
2017-10-20T03:40:02.384Z,61.75
2017-10-20T03:42:30.012Z,61.84
2017-10-20T03:44:57.714Z,62.02
2017-10-20T03:47:25.342Z,62.09
2017-10-20T03:49:52.954Z,61.97
2017-10-20T03:52:21.068Z,62.54
2017-10-20T03:54:49.421Z,62.23
2017-10-20T03:57:18.019Z,61.53
2017-10-20T03:59:45.610Z,61.41
2017-10-20T04:02:13.255Z,61.28
2017-10-20T04:04:40.944Z,61.10
2017-10-20T04:07:08.555Z,60.71
2017-10-20T04:09:36.291Z,61.16
2017-10-20T04:12:03.886Z,61.27
2017-10-20T04:14:31.544Z,62.00
2017-10-20T04:16:59.121Z,62.74
2017-10-20T04:19:27.990Z,63.97
2017-10-20T04:21:55.691Z,66.32
2017-10-20T04:24:23.320Z,69.24
2017-10-20T04:26:50.917Z,71.04
2017-10-20T04:29:18.547Z,72.90
2017-10-20T04:31:46.143Z,73.67
2017-10-20T04:34:13.766Z,74.80
2017-10-20T04:36:41.359Z,76.22
2017-10-20T04:39:08.995Z,76.35
2017-10-20T04:41:36.583Z,77.75
2017-10-20T04:44:04.205Z,78.31
2017-10-20T04:46:31.803Z,78.46
2017-10-20T04:48:59.493Z,80.05
2017-10-20T04:51:27.090Z,80.67
2017-10-20T04:53:54.739Z,80.53
2017-10-20T04:56:22.348Z,80.56
2017-10-20T04:58:49.995Z,80.94
2017-10-20T05:01:17.584Z,81.51
2017-10-20T05:03:45.690Z,81.65
2017-10-20T05:06:15.143Z,82.38
2017-10-20T05:08:42.734Z,82.16
2017-10-20T05:11:10.361Z,82.58
2017-10-20T05:13:37.954Z,82.61
2017-10-20T05:16:05.571Z,83.00
2017-10-20T05:18:33.174Z,82.56
2017-10-20T05:21:00.852Z,82.89
2017-10-20T05:23:28.447Z,83.39
2017-10-20T05:25:56.093Z,84.09
2017-10-20T05:28:23.702Z,84.48
2017-10-20T05:30:51.293Z,84.26
2017-10-20T05:33:18.943Z,84.95
2017-10-20T05:35:46.545Z,86.17
2017-10-20T05:38:14.173Z,87.14
2017-10-20T05:40:41.781Z,87.75
2017-10-20T05:43:09.417Z,88.09
2017-10-20T05:45:37.040Z,88.82
2017-10-20T05:48:04.712Z,89.92
2017-10-20T05:50:32.311Z,90.72
2017-10-20T05:52:59.942Z,90.12
2017-10-20T05:55:27.575Z,90.55
2017-10-20T05:57:55.212Z,90.56
2017-10-20T06:00:22.811Z,90.50
2017-10-20T06:02:50.446Z,91.15
2017-10-20T06:05:18.049Z,91.77
2017-10-20T06:07:45.676Z,92.54
2017-10-20T06:10:13.278Z,92.83
2017-10-20T06:12:40.910Z,93.73
2017-10-20T06:15:08.565Z,94.10
2017-10-20T06:17:40.912Z,94.07
2017-10-20T06:20:08.543Z,94.22
2017-10-20T06:22:36.142Z,94.20
2017-10-20T06:25:03.776Z,94.17
2017-10-20T06:27:31.386Z,93.68
2017-10-20T06:29:59.015Z,93.43
2017-10-20T06:32:26.688Z,93.16
2017-10-20T06:34:54.364Z,93.26
2017-10-20T06:37:21.967Z,93.43
2017-10-20T06:39:49.638Z,93.38
2017-10-20T06:42:17.343Z,92.50
2017-10-20T06:44:44.966Z,91.72
2017-10-20T06:47:12.571Z,90.56
2017-10-20T06:49:40.207Z,91.27
2017-10-20T06:52:07.823Z,92.14
2017-10-20T06:54:36.055Z,92.31
2017-10-20T06:57:03.662Z,92.98
2017-10-20T06:59:31.287Z,93.29
2017-10-20T07:01:59.172Z,92.72
2017-10-20T07:04:26.791Z,91.05
2017-10-20T07:06:54.415Z,90.40
2017-10-20T07:09:22.536Z,89.88
2017-10-20T07:11:50.119Z,89.15
2017-10-20T07:14:17.847Z,88.74
2017-10-20T07:16:45.418Z,89.19
2017-10-20T07:19:14.594Z,88.62
2017-10-20T07:21:42.175Z,87.47
2017-10-20T07:24:09.830Z,87.95
2017-10-20T07:26:37.451Z,87.43
2017-10-20T07:29:05.066Z,87.90
2017-10-20T07:31:32.667Z,88.21
2017-10-20T07:34:00.278Z,88.78
2017-10-20T07:36:27.907Z,88.99
2017-10-20T07:38:55.509Z,88.89
2017-10-20T07:41:23.162Z,89.67
2017-10-20T07:43:51.841Z,89.80
2017-10-20T07:46:19.459Z,89.36
2017-10-20T07:48:47.063Z,89.96
2017-10-20T07:51:14.699Z,89.68
2017-10-20T07:53:42.967Z,88.45
2017-10-20T07:56:10.604Z,87.82
2017-10-20T07:58:38.257Z,87.27
2017-10-20T08:01:05.897Z,86.09
2017-10-20T08:03:33.484Z,84.16
2017-10-20T08:06:01.179Z,83.79
2017-10-20T08:08:28.815Z,83.13
2017-10-20T08:10:56.438Z,82.65
2017-10-20T08:13:24.080Z,82.31
2017-10-20T08:15:51.687Z,81.20
2017-10-20T08:18:19.334Z,80.76
2017-10-20T08:20:47.035Z,80.49
2017-10-20T08:23:14.711Z,80.66
2017-10-20T08:25:42.336Z,79.85
2017-10-20T08:28:09.949Z,79.87
2017-10-20T08:30:37.662Z,79.95
2017-10-20T08:33:05.295Z,79.96
2017-10-20T08:35:32.883Z,79.80
2017-10-20T08:38:00.516Z,79.74
2017-10-20T08:40:28.364Z,79.87
2017-10-20T08:42:55.979Z,80.06
2017-10-20T08:45:23.558Z,80.49
2017-10-20T08:47:51.190Z,80.68
2017-10-20T08:50:18.826Z,82.12
2017-10-20T08:52:46.474Z,84.63
2017-10-20T08:55:14.082Z,85.91
2017-10-20T08:57:41.743Z,88.98
2017-10-20T09:00:10.315Z,91.13
2017-10-20T09:02:38.034Z,91.95
2017-10-20T09:05:05.638Z,91.86
2017-10-20T09:07:34.159Z,92.22
2017-10-20T09:10:01.759Z,92.47
2017-10-20T09:12:29.405Z,92.57
2017-10-20T09:14:57.020Z,91.32
2017-10-20T09:17:24.667Z,91.31
2017-10-20T09:19:52.258Z,91.22
2017-10-20T09:22:19.891Z,91.68
2017-10-20T09:24:47.522Z,90.67
2017-10-20T09:27:15.189Z,91.20
2017-10-20T09:29:42.987Z,91.10
2017-10-20T09:32:10.602Z,90.34
2017-10-20T09:34:38.883Z,90.00
2017-10-20T09:37:06.500Z,91.40
2017-10-20T09:39:34.123Z,91.19
2017-10-20T09:42:01.711Z,92.03
2017-10-20T09:44:29.879Z,92.27
2017-10-20T09:46:57.479Z,92.37
2017-10-20T09:49:25.098Z,92.01
2017-10-20T09:51:52.695Z,91.57
2017-10-20T09:54:20.320Z,90.33
2017-10-20T09:56:48.010Z,89.63
2017-10-20T09:59:15.625Z,86.76
2017-10-20T10:01:43.586Z,87.06
2017-10-20T10:04:11.223Z,82.71
2017-10-20T10:06:38.806Z,80.04
2017-10-20T10:09:06.438Z,79.96
2017-10-20T10:11:34.025Z,74.67
2017-10-20T10:14:01.661Z,73.12
2017-10-20T10:16:29.256Z,74.23
2017-10-20T10:18:56.962Z,72.99
2017-10-20T10:21:24.559Z,68.19
2017-10-20T10:23:52.215Z,68.01
2017-10-20T10:26:19.828Z,69.89
2017-10-20T10:28:48.414Z,68.49
2017-10-20T10:31:16.030Z,68.85
2017-10-20T10:33:43.651Z,67.34
2017-10-20T10:36:11.281Z,66.16
2017-10-20T10:38:38.872Z,65.60
2017-10-20T10:41:06.498Z,64.53
2017-10-20T10:43:34.094Z,63.30
2017-10-20T10:46:01.738Z,62.20
2017-10-20T10:48:29.360Z,62.31
2017-10-20T10:50:56.991Z,60.43
2017-10-20T10:53:24.582Z,59.94
2017-10-20T10:55:52.192Z,59.33
2017-10-20T10:58:20.774Z,59.13
2017-10-20T11:00:48.428Z,57.87
2017-10-20T11:03:16.027Z,57.17
2017-10-20T11:05:55.263Z,57.96
2017-10-20T11:08:34.482Z,58.31
2017-10-20T11:11:13.619Z,58.83
2017-10-20T11:13:41.230Z,57.36
2017-10-20T11:16:08.863Z,55.90
2017-10-20T11:18:36.456Z,54.62
2017-10-20T11:21:04.223Z,55.69
2017-10-20T11:23:31.831Z,56.11
2017-10-20T11:25:59.467Z,56.44
2017-10-20T11:28:27.051Z,56.67
2017-10-20T11:30:54.762Z,54.27
2017-10-20T11:33:22.362Z,53.61
2017-10-20T11:35:49.990Z,51.36
2017-10-20T11:38:17.595Z,51.39
2017-10-20T11:40:45.219Z,51.24
2017-10-20T11:43:13.787Z,51.15
2017-10-20T11:45:41.409Z,50.50
2017-10-20T11:48:09.010Z,51.43
2017-10-20T11:50:36.626Z,52.73
2017-10-20T11:53:04.218Z,53.92
2017-10-20T11:55:31.851Z,53.52
2017-10-20T11:57:59.459Z,52.66
2017-10-20T12:00:27.096Z,52.40
2017-10-20T12:02:54.719Z,49.82
2017-10-20T12:05:22.322Z,49.19
2017-10-20T12:07:49.920Z,50.07
2017-10-20T12:10:17.562Z,49.59
2017-10-20T12:12:45.216Z,50.77
2017-10-20T12:15:12.871Z,52.55
2017-10-20T12:17:40.490Z,52.90
2017-10-20T12:20:08.092Z,52.90
2017-10-20T12:22:35.720Z,52.46
2017-10-20T12:25:03.336Z,52.50
2017-10-20T12:27:30.954Z,53.16
2017-10-20T12:29:58.543Z,52.65
2017-10-20T12:32:26.156Z,53.19
2017-10-20T12:34:53.751Z,53.94
2017-10-20T12:37:36.104Z,53.46
2017-10-20T12:40:03.727Z,53.94
2017-10-20T12:42:31.362Z,54.51
2017-10-20T12:44:58.958Z,54.27
2017-10-20T12:47:26.602Z,53.49
2017-10-20T12:49:54.202Z,53.61
2017-10-20T12:52:21.840Z,54.70
2017-10-20T12:54:49.446Z,54.39
2017-10-20T12:57:17.163Z,54.61
2017-10-20T12:59:44.768Z,53.90
2017-10-20T13:02:12.392Z,53.85
2017-10-20T13:04:40.024Z,53.96
2017-10-20T13:07:07.683Z,54.58
2017-10-20T13:09:35.383Z,54.99
2017-10-20T13:12:02.985Z,54.89
2017-10-20T13:14:30.611Z,54.87
2017-10-20T13:16:58.231Z,55.51
2017-10-20T13:19:25.887Z,55.53
2017-10-20T13:21:53.547Z,54.79
2017-10-20T13:24:21.180Z,54.50
2017-10-20T13:26:48.790Z,54.22
2017-10-20T13:29:16.406Z,54.14
2017-10-20T13:31:44.014Z,54.30
2017-10-20T13:34:11.658Z,53.63
2017-10-20T13:36:39.269Z,54.11
2017-10-20T13:39:06.983Z,54.29
2017-10-20T13:41:34.585Z,55.05
2017-10-20T13:44:02.231Z,54.93
2017-10-20T13:46:29.823Z,55.71
2017-10-20T13:48:57.443Z,55.16
2017-10-20T13:51:25.042Z,55.08
2017-10-20T13:53:52.639Z,55.67
2017-10-20T13:56:20.301Z,55.83
2017-10-20T13:58:47.907Z,56.18
2017-10-20T14:01:15.547Z,56.39
2017-10-20T14:03:43.151Z,56.26
2017-10-20T14:06:10.826Z,56.53
2017-10-20T14:08:38.455Z,56.71
2017-10-20T14:11:06.116Z,56.36
2017-10-20T14:13:33.770Z,56.84
2017-10-20T14:16:01.412Z,56.29
2017-10-20T14:18:29.020Z,57.23
2017-10-20T14:20:56.663Z,57.87
2017-10-20T14:23:25.113Z,57.87
2017-10-20T14:25:52.730Z,57.64
2017-10-20T14:28:20.346Z,57.43
2017-10-20T14:30:48.072Z,58.00
2017-10-20T14:33:15.703Z,57.59
2017-10-20T14:35:43.435Z,58.64
2017-10-20T14:38:11.075Z,58.48
2017-10-20T14:40:38.691Z,58.88
2017-10-20T14:43:06.344Z,59.37
2017-10-20T14:45:34.701Z,59.20
2017-10-20T14:48:02.323Z,59.64
2017-10-20T14:50:29.964Z,59.65
2017-10-20T14:52:57.598Z,59.96
2017-10-20T14:55:25.266Z,60.51
2017-10-20T14:57:52.951Z,60.44
2017-10-20T15:00:20.617Z,60.25
2017-10-20T15:02:48.259Z,60.56
2017-10-20T15:05:15.867Z,60.61
2017-10-20T15:07:43.526Z,60.61
2017-10-20T15:10:11.131Z,60.61
2017-10-20T15:12:38.782Z,60.71
2017-10-20T15:15:06.386Z,61.04
2017-10-20T15:17:34.043Z,60.97
2017-10-20T15:20:01.668Z,60.79
2017-10-20T15:22:29.380Z,61.24
2017-10-20T15:24:56.996Z,61.35
2017-10-20T15:27:24.623Z,61.82
2017-10-20T15:29:52.233Z,61.68
2017-10-20T15:32:19.967Z,61.82
2017-10-20T15:34:47.593Z,62.08
2017-10-20T15:37:15.241Z,62.32
2017-10-20T15:39:42.840Z,62.46
2017-10-20T15:42:10.484Z,62.62
2017-10-20T15:44:38.081Z,63.00
2017-10-20T15:47:05.765Z,63.29
2017-10-20T15:49:33.434Z,63.46
2017-10-20T15:52:01.085Z,63.69
2017-10-20T15:54:28.737Z,63.97
2017-10-20T15:56:57.166Z,64.28
2017-10-20T15:59:24.786Z,64.57
2017-10-20T16:01:52.434Z,64.93
2017-10-20T16:04:20.042Z,64.47
2017-10-20T16:06:47.679Z,64.49
2017-10-20T16:09:15.289Z,63.01
2017-10-20T16:11:42.930Z,63.73
2017-10-20T16:14:10.532Z,63.57
2017-10-20T16:16:38.167Z,62.28
2017-10-20T16:19:05.845Z,62.34
2017-10-20T16:21:33.488Z,62.46
2017-10-20T16:24:01.087Z,62.78
2017-10-20T16:26:28.723Z,62.62
2017-10-20T16:28:56.314Z,62.94
2017-10-20T16:31:23.963Z,62.90
2017-10-20T16:33:51.578Z,63.07
2017-10-20T16:36:19.254Z,63.26
2017-10-20T16:38:47.103Z,63.45
2017-10-20T16:41:14.750Z,63.45
2017-10-20T16:43:42.386Z,63.62
2017-10-20T16:46:10.024Z,63.89
2017-10-20T16:48:38.451Z,63.85
2017-10-20T16:51:06.152Z,64.06
2017-10-20T16:53:33.747Z,64.17
2017-10-20T16:56:01.367Z,64.20
2017-10-20T16:58:29.117Z,64.58
2017-10-20T17:00:56.719Z,64.39
2017-10-20T17:03:24.348Z,64.63
2017-10-20T17:05:51.983Z,64.57
2017-10-20T17:08:19.618Z,64.46
2017-10-20T17:10:47.243Z,64.95
2017-10-20T17:13:14.895Z,64.90
2017-10-20T17:15:42.494Z,64.95
2017-10-20T17:18:11.300Z,65.21
2017-10-20T17:20:38.896Z,65.25
2017-10-20T17:23:06.535Z,65.36
2017-10-20T17:25:34.143Z,65.52
2017-10-20T17:28:01.814Z,65.53
2017-10-20T17:30:29.454Z,65.58
2017-10-20T17:32:57.148Z,65.62
2017-10-20T17:35:24.746Z,65.48
2017-10-20T17:37:52.429Z,65.79
2017-10-20T17:40:20.053Z,65.61
2017-10-20T17:42:47.771Z,64.95
2017-10-20T17:45:15.379Z,64.67
2017-10-20T17:47:43.122Z,65.17
2017-10-20T17:50:10.723Z,65.31
2017-10-20T17:52:38.327Z,65.77
2017-10-20T17:55:05.969Z,66.27
2017-10-20T17:57:33.616Z,66.28
2017-10-20T18:00:02.897Z,66.79
2017-10-20T18:02:30.524Z,66.93
2017-10-20T18:04:58.170Z,67.15
2017-10-20T18:07:25.782Z,66.93
2017-10-20T18:09:53.436Z,66.51
2017-10-20T18:12:21.031Z,66.23
2017-10-20T18:14:48.709Z,66.40
2017-10-20T18:17:16.308Z,66.53
2017-10-20T18:19:43.911Z,65.97
2017-10-20T18:22:11.550Z,66.11
2017-10-20T18:24:39.204Z,65.15
2017-10-20T18:27:06.838Z,65.03
2017-10-20T18:29:34.436Z,64.88
2017-10-20T18:32:02.124Z,63.78
2017-10-20T18:34:29.762Z,64.24
2017-10-20T18:36:57.477Z,63.96
2017-10-20T18:39:25.162Z,64.19
2017-10-20T18:41:52.792Z,63.71
2017-10-20T18:44:20.438Z,63.84
2017-10-20T18:46:48.046Z,64.06
2017-10-20T18:49:15.677Z,64.10
2017-10-20T18:51:43.290Z,64.20
2017-10-20T18:54:10.941Z,64.14
2017-10-20T18:56:39.545Z,64.26
2017-10-20T18:59:07.184Z,64.24
2017-10-20T19:01:34.819Z,64.30
2017-10-20T19:04:02.479Z,64.71
2017-10-20T19:06:30.087Z,64.65
2017-10-20T19:09:01.629Z,64.24
2017-10-20T19:11:29.249Z,63.82
2017-10-20T19:13:56.893Z,63.34
2017-10-20T19:16:24.512Z,63.97
2017-10-20T19:18:52.378Z,64.38
2017-10-20T19:21:21.034Z,64.34
2017-10-20T19:23:48.696Z,63.32
2017-10-20T19:26:16.363Z,63.48
2017-10-20T19:28:44.955Z,63.52
2017-10-20T19:31:13.480Z,63.39
2017-10-20T19:33:41.123Z,63.32
2017-10-20T19:36:09.575Z,63.28
2017-10-20T19:38:37.196Z,63.54
2017-10-20T19:41:04.884Z,63.53
2017-10-20T19:43:32.606Z,63.52
2017-10-20T19:46:00.292Z,63.81
2017-10-20T19:48:27.936Z,63.53
2017-10-20T19:50:55.592Z,63.76
2017-10-20T19:53:23.226Z,63.58
2017-10-20T19:55:50.868Z,63.55
2017-10-20T19:58:18.480Z,63.69
2017-10-20T20:00:46.116Z,63.75
2017-10-20T20:03:13.760Z,63.95
2017-10-20T20:05:41.398Z,64.29
2017-10-20T20:08:08.999Z,64.23
2017-10-20T20:10:36.651Z,64.60
2017-10-20T20:13:04.255Z,64.71
2017-10-20T20:15:32.638Z,64.86
2017-10-20T20:18:00.231Z,65.16
2017-10-20T20:20:28.064Z,65.35
2017-10-20T20:22:55.679Z,65.31
2017-10-20T20:25:23.337Z,65.50
2017-10-20T20:27:50.946Z,65.60
2017-10-20T20:30:20.649Z,65.86
2017-10-20T20:33:03.127Z,66.01
2017-10-20T20:35:30.797Z,66.39
2017-10-20T20:37:58.401Z,69.25
2017-10-20T20:40:26.054Z,66.65
2017-10-20T20:42:53.801Z,66.57
2017-10-20T20:45:21.449Z,66.47
2017-10-20T20:47:49.072Z,66.78
2017-10-20T20:50:16.755Z,67.00
2017-10-20T20:52:44.362Z,67.52
2017-10-20T20:55:12.040Z,67.37
2017-10-20T20:57:39.687Z,67.09
2017-10-20T21:00:07.300Z,67.32
2017-10-20T21:02:34.915Z,67.57
2017-10-20T21:05:02.531Z,67.50
2017-10-20T21:07:30.179Z,68.65
2017-10-20T21:09:57.820Z,68.13
2017-10-20T21:12:25.463Z,67.97
2017-10-20T21:14:53.110Z,68.17
2017-10-20T21:17:20.801Z,68.39
2017-10-20T21:19:48.447Z,68.70
2017-10-20T21:22:16.047Z,68.62
2017-10-20T21:24:43.699Z,68.61
2017-10-20T21:27:11.305Z,69.01
2017-10-20T21:29:38.946Z,68.53
2017-10-20T21:32:06.592Z,68.88
2017-10-20T21:34:35.207Z,69.12
2017-10-20T21:37:02.810Z,69.44
2017-10-20T21:39:30.426Z,69.99
2017-10-20T21:41:58.094Z,69.70
2017-10-20T21:44:25.685Z,69.59
2017-10-20T21:46:53.311Z,69.66
2017-10-20T21:49:20.915Z,69.71
2017-10-20T21:51:48.554Z,69.69
2017-10-20T21:54:16.151Z,69.84
2017-10-20T21:56:43.791Z,69.97
2017-10-20T21:59:11.391Z,70.17
2017-10-20T22:01:39.039Z,70.26
2017-10-20T22:04:06.903Z,70.54
2017-10-20T22:06:34.528Z,70.41
2017-10-20T22:09:02.128Z,70.02
2017-10-20T22:11:29.779Z,69.90
2017-10-20T22:13:57.383Z,70.12
2017-10-20T22:16:25.016Z,70.18
2017-10-20T22:18:52.787Z,70.57
2017-10-20T22:21:20.462Z,70.61
2017-10-20T22:23:48.059Z,70.59
2017-10-20T22:26:15.719Z,70.43
2017-10-20T22:28:43.355Z,70.41
2017-10-20T22:31:10.969Z,70.69
2017-10-20T22:33:38.624Z,70.70
2017-10-20T22:36:06.228Z,70.78
2017-10-20T22:38:33.862Z,70.87
2017-10-20T22:41:01.500Z,71.16
2017-10-20T22:43:29.145Z,71.02
2017-10-20T22:45:56.763Z,71.27
2017-10-20T22:48:24.408Z,71.46
2017-10-20T22:50:52.018Z,71.44
2017-10-20T22:53:19.645Z,71.34
2017-10-20T22:55:47.408Z,71.05
2017-10-20T22:58:15.105Z,70.92
2017-10-20T23:00:42.761Z,70.92
2017-10-20T23:03:10.403Z,71.06
2017-10-20T23:05:38.087Z,70.88
2017-10-20T23:08:05.926Z,70.75
2017-10-20T23:10:33.541Z,70.77
2017-10-20T23:13:01.180Z,70.70
2017-10-20T23:15:28.773Z,70.76
2017-10-20T23:17:56.589Z,70.54
2017-10-20T23:20:24.175Z,70.21
2017-10-20T23:22:51.809Z,70.28
2017-10-20T23:25:19.438Z,70.08
2017-10-20T23:27:47.071Z,70.48
2017-10-20T23:30:14.703Z,70.22
2017-10-20T23:32:43.003Z,69.93
2017-10-20T23:35:10.606Z,70.09
2017-10-20T23:37:38.234Z,70.24
2017-10-20T23:40:05.895Z,70.66
2017-10-20T23:42:33.527Z,70.87
2017-10-20T23:45:01.135Z,71.06
2017-10-20T23:47:28.787Z,71.05
2017-10-20T23:49:56.403Z,70.94
2017-10-20T23:52:24.025Z,71.25
2017-10-20T23:54:51.634Z,71.30
2017-10-20T23:57:19.242Z,71.39
2017-10-20T23:59:47.044Z,71.36
